sensor_id;sensor_type;location;lat;lon;timestamp;temperature;humidity
55795;DHT22;41716;51.910;4.430;2022-12-29T00:02:35;11.70;99.90
55795;DHT22;41716;51.910;4.430;2022-12-29T00:07:38;11.80;99.90
55795;DHT22;41716;51.910;4.430;2022-12-29T00:12:40;11.20;99.90
55795;DHT22;41716;51.910;4.430;2022-12-29T00:17:59;10.90;99.90
55795;DHT22;41716;51.910;4.430;2022-12-29T00:23:02;10.60;99.90
55795;DHT22;41716;51.910;4.430;2022-12-29T00:28:21;11.60;99.90
55795;DHT22;41716;51.910;4.430;2022-12-29T00:33:40;11.60;99.90
55795;DHT22;41716;51.910;4.430;2022-12-29T00:39:07;11.30;99.90
55795;DHT22;41716;51.910;4.430;2022-12-29T00:44:26;11.30;99.90
55795;DHT22;41716;51.910;4.430;2022-12-29T00:49:28;10.80;99.90
55795;DHT22;41716;51.910;4.430;2022-12-29T00:54:35;11.60;99.90
55795;DHT22;41716;51.910;4.430;2022-12-29T00:59:38;11.10;99.90
55795;DHT22;41716;51.910;4.430;2022-12-29T01:04:40;10.80;99.90
55795;DHT22;41716;51.910;4.430;2022-12-29T01:09:44;11.60;99.90
55795;DHT22;41716;51.910;4.430;2022-12-29T01:15:04;11.30;99.90
55795;DHT22;41716;51.910;4.430;2022-12-29T01:20:07;10.50;99.90
55795;DHT22;41716;51.910;4.430;2022-12-29T01:25:10;11.60;99.90
55795;DHT22;41716;51.910;4.430;2022-12-29T01:30:12;11.60;99.90
55795;DHT22;41716;51.910;4.430;2022-12-29T01:35:14;11.80;99.90
55795;DHT22;41716;51.910;4.430;2022-12-29T01:40:17;11.80;99.90
55795;DHT22;41716;51.910;4.430;2022-12-29T01:45:19;11.60;99.90
55795;DHT22;41716;51.910;4.430;2022-12-29T01:50:24;11.10;99.90
55795;DHT22;41716;51.910;4.430;2022-12-29T01:55:31;11.30;99.90
55795;DHT22;41716;51.910;4.430;2022-12-29T02:00:34;10.60;99.90
55795;DHT22;41716;51.910;4.430;2022-12-29T02:05:38;11.20;99.90
55795;DHT22;41716;51.910;4.430;2022-12-29T02:10:42;11.50;99.90
55795;DHT22;41716;51.910;4.430;2022-12-29T02:15:51;10.90;99.90
55795;DHT22;41716;51.910;4.430;2022-12-29T02:26:41;10.30;99.90
55795;DHT22;41716;51.910;4.430;2022-12-29T02:31:51;10.30;99.90
55795;DHT22;41716;51.910;4.430;2022-12-29T02:37:02;10.70;99.90
55795;DHT22;41716;51.910;4.430;2022-12-29T02:42:09;11.30;99.90
55795;DHT22;41716;51.910;4.430;2022-12-29T02:47:20;10.50;99.90
55795;DHT22;41716;51.910;4.430;2022-12-29T02:52:27;11.20;99.90
55795;DHT22;41716;51.910;4.430;2022-12-29T02:57:32;10.10;99.90
55795;DHT22;41716;51.910;4.430;2022-12-29T03:03:00;11.10;99.90
55795;DHT22;41716;51.910;4.430;2022-12-29T03:08:11;10.20;99.90
55795;DHT22;41716;51.910;4.430;2022-12-29T03:13:21;10.60;99.90
55795;DHT22;41716;51.910;4.430;2022-12-29T03:18:49;11.30;99.90
55795;DHT22;41716;51.910;4.430;2022-12-29T03:23:53;10.80;99.90
55795;DHT22;41716;51.910;4.430;2022-12-29T03:28:55;11.20;99.90
55795;DHT22;41716;51.910;4.430;2022-12-29T03:34:00;11.20;99.90
55795;DHT22;41716;51.910;4.430;2022-12-29T03:39:09;10.80;99.90
55795;DHT22;41716;51.910;4.430;2022-12-29T03:44:12;11.10;99.90
55795;DHT22;41716;51.910;4.430;2022-12-29T03:49:15;11.20;99.90
55795;DHT22;41716;51.910;4.430;2022-12-29T03:54:17;11.20;99.90
55795;DHT22;41716;51.910;4.430;2022-12-29T03:59:19;10.30;99.90
55795;DHT22;41716;51.910;4.430;2022-12-29T04:04:22;10.90;99.90
55795;DHT22;41716;51.910;4.430;2022-12-29T04:09:23;10.50;99.90
55795;DHT22;41716;51.910;4.430;2022-12-29T04:14:25;10.60;99.90
55795;DHT22;41716;51.910;4.430;2022-12-29T04:19:28;10.10;99.90
55795;DHT22;41716;51.910;4.430;2022-12-29T04:24:30;10.70;99.90
55795;DHT22;41716;51.910;4.430;2022-12-29T04:29:31;10.70;99.90
55795;DHT22;41716;51.910;4.430;2022-12-29T04:34:34;10.60;99.90
55795;DHT22;41716;51.910;4.430;2022-12-29T04:39:36;10.50;99.90
55795;DHT22;41716;51.910;4.430;2022-12-29T04:44:38;10.50;99.90
55795;DHT22;41716;51.910;4.430;2022-12-29T04:49:41;10.30;99.90
55795;DHT22;41716;51.910;4.430;2022-12-29T04:54:42;10.90;99.90
55795;DHT22;41716;51.910;4.430;2022-12-29T04:59:44;10.80;99.90
55795;DHT22;41716;51.910;4.430;2022-12-29T05:04:47;10.80;99.90
55795;DHT22;41716;51.910;4.430;2022-12-29T05:09:49;10.00;99.90
55795;DHT22;41716;51.910;4.430;2022-12-29T05:14:50;9.80;99.90
55795;DHT22;41716;51.910;4.430;2022-12-29T05:19:53;9.60;99.90
55795;DHT22;41716;51.910;4.430;2022-12-29T05:24:56;9.80;99.90
55795;DHT22;41716;51.910;4.430;2022-12-29T05:29:58;9.70;99.90
55795;DHT22;41716;51.910;4.430;2022-12-29T05:35:01;10.50;99.90
55795;DHT22;41716;51.910;4.430;2022-12-29T05:40:04;10.70;99.90
55795;DHT22;41716;51.910;4.430;2022-12-29T05:45:07;10.20;99.90
55795;DHT22;41716;51.910;4.430;2022-12-29T05:50:10;10.10;99.90
55795;DHT22;41716;51.910;4.430;2022-12-29T05:55:12;10.70;99.90
55795;DHT22;41716;51.910;4.430;2022-12-29T06:00:14;10.00;99.90
55795;DHT22;41716;51.910;4.430;2022-12-29T06:05:17;10.20;99.90
55795;DHT22;41716;51.910;4.430;2022-12-29T06:10:19;10.20;99.90
55795;DHT22;41716;51.910;4.430;2022-12-29T06:15:21;10.70;99.90
55795;DHT22;41716;51.910;4.430;2022-12-29T06:20:24;9.70;99.90
55795;DHT22;41716;51.910;4.430;2022-12-29T06:25:25;10.50;99.90
55795;DHT22;41716;51.910;4.430;2022-12-29T06:30:28;10.30;99.90
55795;DHT22;41716;51.910;4.430;2022-12-29T06:35:32;9.50;99.90
55795;DHT22;41716;51.910;4.430;2022-12-29T06:40:33;10.30;99.90
55795;DHT22;41716;51.910;4.430;2022-12-29T06:45:37;9.80;99.90
55795;DHT22;41716;51.910;4.430;2022-12-29T06:50:40;10.20;99.90
55795;DHT22;41716;51.910;4.430;2022-12-29T06:55:42;9.80;99.90
55795;DHT22;41716;51.910;4.430;2022-12-29T07:00:44;9.60;99.90
55795;DHT22;41716;51.910;4.430;2022-12-29T07:05:47;10.20;99.90
55795;DHT22;41716;51.910;4.430;2022-12-29T07:10:48;10.00;99.90
55795;DHT22;41716;51.910;4.430;2022-12-29T07:15:50;9.60;99.90
55795;DHT22;41716;51.910;4.430;2022-12-29T07:20:53;10.40;99.90
55795;DHT22;41716;51.910;4.430;2022-12-29T07:25:59;10.10;99.90
55795;DHT22;41716;51.910;4.430;2022-12-29T07:31:01;10.40;99.90
55795;DHT22;41716;51.910;4.430;2022-12-29T07:36:05;9.70;99.90
55795;DHT22;41716;51.910;4.430;2022-12-29T07:41:07;9.60;99.90
55795;DHT22;41716;51.910;4.430;2022-12-29T07:46:09;10.70;99.90
55795;DHT22;41716;51.910;4.430;2022-12-29T07:51:12;10.10;99.90
55795;DHT22;41716;51.910;4.430;2022-12-29T07:56:13;11.00;99.90
55795;DHT22;41716;51.910;4.430;2022-12-29T08:01:15;10.50;99.90
55795;DHT22;41716;51.910;4.430;2022-12-29T08:06:18;10.70;99.90
55795;DHT22;41716;51.910;4.430;2022-12-29T08:11:20;10.20;99.90
55795;DHT22;41716;51.910;4.430;2022-12-29T08:16:22;10.30;99.90
55795;DHT22;41716;51.910;4.430;2022-12-29T08:21:25;10.70;99.90
55795;DHT22;41716;51.910;4.430;2022-12-29T08:26:28;11.00;99.90
55795;DHT22;41716;51.910;4.430;2022-12-29T08:31:29;10.30;99.90
55795;DHT22;41716;51.910;4.430;2022-12-29T08:36:32;10.20;99.90
55795;DHT22;41716;51.910;4.430;2022-12-29T08:41:34;10.60;99.90
55795;DHT22;41716;51.910;4.430;2022-12-29T08:46:36;10.20;99.90
55795;DHT22;41716;51.910;4.430;2022-12-29T08:51:39;10.50;99.90
55795;DHT22;41716;51.910;4.430;2022-12-29T08:56:41;10.70;99.90
55795;DHT22;41716;51.910;4.430;2022-12-29T09:01:42;10.40;99.90
55795;DHT22;41716;51.910;4.430;2022-12-29T09:06:45;10.40;99.90
55795;DHT22;41716;51.910;4.430;2022-12-29T09:11:47;9.90;99.90
55795;DHT22;41716;51.910;4.430;2022-12-29T09:16:51;10.70;99.90
55795;DHT22;41716;51.910;4.430;2022-12-29T09:22:11;10.30;99.90
55795;DHT22;41716;51.910;4.430;2022-12-29T09:27:13;10.10;99.90
55795;DHT22;41716;51.910;4.430;2022-12-29T09:32:15;10.50;99.90
55795;DHT22;41716;51.910;4.430;2022-12-29T09:37:18;9.50;99.90
55795;DHT22;41716;51.910;4.430;2022-12-29T09:42:23;10.00;99.90
55795;DHT22;41716;51.910;4.430;2022-12-29T09:47:27;9.90;99.90
55795;DHT22;41716;51.910;4.430;2022-12-29T09:52:35;9.90;99.90
55795;DHT22;41716;51.910;4.430;2022-12-29T09:57:42;9.70;99.90
55795;DHT22;41716;51.910;4.430;2022-12-29T10:02:49;9.50;99.90
55795;DHT22;41716;51.910;4.430;2022-12-29T10:08:00;10.20;99.90
55795;DHT22;41716;51.910;4.430;2022-12-29T10:13:19;10.70;99.90
55795;DHT22;41716;51.910;4.430;2022-12-29T10:18:48;9.60;99.90
55795;DHT22;41716;51.910;4.430;2022-12-29T10:23:55;10.70;99.90
55795;DHT22;41716;51.910;4.430;2022-12-29T10:28:57;9.90;99.90
55795;DHT22;41716;51.910;4.430;2022-12-29T10:34:03;10.90;99.90
55795;DHT22;41716;51.910;4.430;2022-12-29T10:39:14;10.70;99.90
55795;DHT22;41716;51.910;4.430;2022-12-29T10:44:20;11.10;99.90
55795;DHT22;41716;51.910;4.430;2022-12-29T10:49:22;10.40;99.90
55795;DHT22;41716;51.910;4.430;2022-12-29T10:54:31;12.10;99.90
55795;DHT22;41716;51.910;4.430;2022-12-29T10:59:36;10.80;99.90
55795;DHT22;41716;51.910;4.430;2022-12-29T11:04:46;11.80;99.90
55795;DHT22;41716;51.910;4.430;2022-12-29T11:09:50;11.10;99.90
55795;DHT22;41716;51.910;4.430;2022-12-29T11:15:11;10.40;99.90
55795;DHT22;41716;51.910;4.430;2022-12-29T11:20:30;10.90;99.90
55795;DHT22;41716;51.910;4.430;2022-12-29T11:25:33;11.80;99.90
55795;DHT22;41716;51.910;4.430;2022-12-29T11:30:35;11.00;99.90
55795;DHT22;41716;51.910;4.430;2022-12-29T11:35:40;11.30;99.90
55795;DHT22;41716;51.910;4.430;2022-12-29T11:40:43;11.50;99.90
55795;DHT22;41716;51.910;4.430;2022-12-29T11:45:46;11.60;99.90
55795;DHT22;41716;51.910;4.430;2022-12-29T11:50:51;10.60;99.90
55795;DHT22;41716;51.910;4.430;2022-12-29T11:55:57;11.70;99.90
55795;DHT22;41716;51.910;4.430;2022-12-29T12:01:02;11.30;99.90
55795;DHT22;41716;51.910;4.430;2022-12-29T12:06:07;11.80;99.90
55795;DHT22;41716;51.910;4.430;2022-12-29T12:11:15;11.50;99.90
55795;DHT22;41716;51.910;4.430;2022-12-29T12:16:20;11.40;99.90
55795;DHT22;41716;51.910;4.430;2022-12-29T12:21:25;11.30;99.90
55795;DHT22;41716;51.910;4.430;2022-12-29T12:26:35;11.20;99.90
55795;DHT22;41716;51.910;4.430;2022-12-29T12:31:45;11.40;99.90
55795;DHT22;41716;51.910;4.430;2022-12-29T12:42:52;10.80;99.90
55795;DHT22;41716;51.910;4.430;2022-12-29T12:48:07;10.90;99.90
55795;DHT22;41716;51.910;4.430;2022-12-29T12:53:25;11.10;99.90
55795;DHT22;41716;51.910;4.430;2022-12-29T12:58:35;11.40;99.90
55795;DHT22;41716;51.910;4.430;2022-12-29T13:03:53;10.80;99.90
55795;DHT22;41716;51.910;4.430;2022-12-29T13:09:17;11.20;99.90
55795;DHT22;41716;51.910;4.430;2022-12-29T13:14:34;11.20;99.90
55795;DHT22;41716;51.910;4.430;2022-12-29T13:19:42;11.20;99.90
55795;DHT22;41716;51.910;4.430;2022-12-29T13:24:55;11.30;99.90
55795;DHT22;41716;51.910;4.430;2022-12-29T13:30:02;10.40;99.90
55795;DHT22;41716;51.910;4.430;2022-12-29T13:35:16;10.20;99.90
55795;DHT22;41716;51.910;4.430;2022-12-29T13:40:21;10.20;99.90
55795;DHT22;41716;51.910;4.430;2022-12-29T13:45:29;10.30;99.90
55795;DHT22;41716;51.910;4.430;2022-12-29T13:50:36;10.20;99.90
55795;DHT22;41716;51.910;4.430;2022-12-29T13:55:45;10.20;99.90
55795;DHT22;41716;51.910;4.430;2022-12-29T14:00:55;10.70;99.90
55795;DHT22;41716;51.910;4.430;2022-12-29T14:06:13;11.10;99.90
55795;DHT22;41716;51.910;4.430;2022-12-29T14:11:17;10.40;99.90
55795;DHT22;41716;51.910;4.430;2022-12-29T14:16:34;10.80;99.90
55795;DHT22;41716;51.910;4.430;2022-12-29T14:21:36;10.60;99.90
55795;DHT22;41716;51.910;4.430;2022-12-29T14:26:38;10.40;99.90
55795;DHT22;41716;51.910;4.430;2022-12-29T14:31:41;10.90;99.90
55795;DHT22;41716;51.910;4.430;2022-12-29T14:36:53;10.50;99.90
55795;DHT22;41716;51.910;4.430;2022-12-29T14:41:59;10.00;99.90
55795;DHT22;41716;51.910;4.430;2022-12-29T14:47:05;10.80;99.90
55795;DHT22;41716;51.910;4.430;2022-12-29T14:52:15;10.10;99.90
55795;DHT22;41716;51.910;4.430;2022-12-29T14:57:34;10.90;99.90
55795;DHT22;41716;51.910;4.430;2022-12-29T15:02:45;10.70;99.90
55795;DHT22;41716;51.910;4.430;2022-12-29T15:07:48;10.50;99.90
55795;DHT22;41716;51.910;4.430;2022-12-29T15:12:53;10.30;99.90
55795;DHT22;41716;51.910;4.430;2022-12-29T15:17:56;10.80;99.90
55795;DHT22;41716;51.910;4.430;2022-12-29T15:23:02;10.50;99.90
55795;DHT22;41716;51.910;4.430;2022-12-29T15:28:06;10.20;99.90
55795;DHT22;41716;51.910;4.430;2022-12-29T15:33:18;10.40;99.90
55795;DHT22;41716;51.910;4.430;2022-12-29T15:38:23;10.60;99.90
55795;DHT22;41716;51.910;4.430;2022-12-29T15:43:44;10.80;99.90
55795;DHT22;41716;51.910;4.430;2022-12-29T15:48:50;10.20;99.90
55795;DHT22;41716;51.910;4.430;2022-12-29T15:53:52;10.80;99.90
55795;DHT22;41716;51.910;4.430;2022-12-29T15:58:54;10.40;99.90
55795;DHT22;41716;51.910;4.430;2022-12-29T16:03:58;10.10;99.90
55795;DHT22;41716;51.910;4.430;2022-12-29T16:09:02;10.40;99.90
55795;DHT22;41716;51.910;4.430;2022-12-29T16:14:07;10.10;99.90
55795;DHT22;41716;51.910;4.430;2022-12-29T16:19:17;10.30;99.90
55795;DHT22;41716;51.910;4.430;2022-12-29T16:24:23;10.30;99.90
55795;DHT22;41716;51.910;4.430;2022-12-29T16:29:25;10.80;99.90
55795;DHT22;41716;51.910;4.430;2022-12-29T16:34:30;10.60;99.90
55795;DHT22;41716;51.910;4.430;2022-12-29T16:39:34;10.50;99.90
55795;DHT22;41716;51.910;4.430;2022-12-29T16:44:36;10.20;99.90
55795;DHT22;41716;51.910;4.430;2022-12-29T16:49:47;10.10;99.90
55795;DHT22;41716;51.910;4.430;2022-12-29T16:54:53;9.90;99.90
55795;DHT22;41716;51.910;4.430;2022-12-29T16:59:58;10.50;99.90
55795;DHT22;41716;51.910;4.430;2022-12-29T17:05:02;10.00;99.90
55795;DHT22;41716;51.910;4.430;2022-12-29T17:10:04;10.00;99.90
55795;DHT22;41716;51.910;4.430;2022-12-29T17:15:09;10.00;99.90
55795;DHT22;41716;51.910;4.430;2022-12-29T17:20:17;10.20;99.90
55795;DHT22;41716;51.910;4.430;2022-12-29T17:25:20;10.20;99.90
55795;DHT22;41716;51.910;4.430;2022-12-29T17:30:24;10.30;99.90
55795;DHT22;41716;51.910;4.430;2022-12-29T17:35:30;10.30;99.90
55795;DHT22;41716;51.910;4.430;2022-12-29T17:40:32;9.70;99.90
55795;DHT22;41716;51.910;4.430;2022-12-29T17:45:34;10.20;99.90
55795;DHT22;41716;51.910;4.430;2022-12-29T17:50:37;10.20;99.90
55795;DHT22;41716;51.910;4.430;2022-12-29T17:55:39;10.20;99.90
55795;DHT22;41716;51.910;4.430;2022-12-29T18:00:41;10.20;99.90
55795;DHT22;41716;51.910;4.430;2022-12-29T18:05:44;10.60;99.90
55795;DHT22;41716;51.910;4.430;2022-12-29T18:10:46;10.70;99.90
55795;DHT22;41716;51.910;4.430;2022-12-29T18:15:49;10.20;99.90
55795;DHT22;41716;51.910;4.430;2022-12-29T18:20:54;9.90;99.90
55795;DHT22;41716;51.910;4.430;2022-12-29T18:25:59;10.70;99.90
55795;DHT22;41716;51.910;4.430;2022-12-29T18:31:01;10.10;99.90
55795;DHT22;41716;51.910;4.430;2022-12-29T18:36:04;10.70;99.90
55795;DHT22;41716;51.910;4.430;2022-12-29T18:41:14;10.00;99.90
55795;DHT22;41716;51.910;4.430;2022-12-29T18:46:15;10.20;99.90
55795;DHT22;41716;51.910;4.430;2022-12-29T18:51:21;10.10;99.90
55795;DHT22;41716;51.910;4.430;2022-12-29T18:56:23;10.30;99.90
55795;DHT22;41716;51.910;4.430;2022-12-29T19:01:26;10.50;99.90
55795;DHT22;41716;51.910;4.430;2022-12-29T19:06:29;10.40;99.90
55795;DHT22;41716;51.910;4.430;2022-12-29T19:11:31;9.90;99.90
55795;DHT22;41716;51.910;4.430;2022-12-29T19:16:33;10.00;99.90
55795;DHT22;41716;51.910;4.430;2022-12-29T19:21:36;10.40;99.90
55795;DHT22;41716;51.910;4.430;2022-12-29T19:26:39;10.20;99.90
55795;DHT22;41716;51.910;4.430;2022-12-29T19:31:41;10.00;99.90
55795;DHT22;41716;51.910;4.430;2022-12-29T19:36:44;9.80;99.90
55795;DHT22;41716;51.910;4.430;2022-12-29T19:41:46;10.00;99.90
55795;DHT22;41716;51.910;4.430;2022-12-29T19:46:48;9.90;99.90
55795;DHT22;41716;51.910;4.430;2022-12-29T19:51:51;10.00;99.90
55795;DHT22;41716;51.910;4.430;2022-12-29T19:56:52;9.90;99.90
55795;DHT22;41716;51.910;4.430;2022-12-29T20:01:54;9.40;99.90
55795;DHT22;41716;51.910;4.430;2022-12-29T20:06:57;10.20;99.90
55795;DHT22;41716;51.910;4.430;2022-12-29T20:11:59;10.60;99.90
55795;DHT22;41716;51.910;4.430;2022-12-29T20:17:00;9.30;99.90
55795;DHT22;41716;51.910;4.430;2022-12-29T20:22:05;10.10;99.90
55795;DHT22;41716;51.910;4.430;2022-12-29T20:27:09;9.70;99.90
55795;DHT22;41716;51.910;4.430;2022-12-29T20:32:12;10.20;99.90
55795;DHT22;41716;51.910;4.430;2022-12-29T20:37:18;9.70;99.90
55795;DHT22;41716;51.910;4.430;2022-12-29T20:42:20;9.80;99.90
55795;DHT22;41716;51.910;4.430;2022-12-29T20:47:22;10.60;99.90
55795;DHT22;41716;51.910;4.430;2022-12-29T20:52:25;10.20;99.90
55795;DHT22;41716;51.910;4.430;2022-12-29T20:57:26;10.40;99.90
55795;DHT22;41716;51.910;4.430;2022-12-29T21:02:28;9.60;99.90
55795;DHT22;41716;51.910;4.430;2022-12-29T21:07:31;9.70;99.90
55795;DHT22;41716;51.910;4.430;2022-12-29T21:12:33;9.40;99.90
55795;DHT22;41716;51.910;4.430;2022-12-29T21:17:35;9.50;99.90
55795;DHT22;41716;51.910;4.430;2022-12-29T21:22:38;9.50;99.90
55795;DHT22;41716;51.910;4.430;2022-12-29T21:27:40;8.80;99.90
55795;DHT22;41716;51.910;4.430;2022-12-29T21:32:44;9.10;99.90
55795;DHT22;41716;51.910;4.430;2022-12-29T21:37:47;8.80;99.90
55795;DHT22;41716;51.910;4.430;2022-12-29T21:42:49;8.10;99.90
55795;DHT22;41716;51.910;4.430;2022-12-29T21:47:50;8.50;99.90
55795;DHT22;41716;51.910;4.430;2022-12-29T21:53:11;8.10;99.90
55795;DHT22;41716;51.910;4.430;2022-12-29T21:58:13;8.20;99.90
55795;DHT22;41716;51.910;4.430;2022-12-29T22:03:32;8.10;99.90
55795;DHT22;41716;51.910;4.430;2022-12-29T22:08:52;8.40;99.90
55795;DHT22;41716;51.910;4.430;2022-12-29T22:14:11;7.80;99.90
55795;DHT22;41716;51.910;4.430;2022-12-29T22:19:13;8.00;99.90
55795;DHT22;41716;51.910;4.430;2022-12-29T22:24:17;7.70;99.90
55795;DHT22;41716;51.910;4.430;2022-12-29T22:29:18;8.10;99.90
55795;DHT22;41716;51.910;4.430;2022-12-29T22:34:20;7.50;99.90
55795;DHT22;41716;51.910;4.430;2022-12-29T22:39:23;7.80;99.90
55795;DHT22;41716;51.910;4.430;2022-12-29T22:44:25;7.60;99.90
55795;DHT22;41716;51.910;4.430;2022-12-29T22:49:27;8.20;99.90
55795;DHT22;41716;51.910;4.430;2022-12-29T22:54:30;7.20;99.90
55795;DHT22;41716;51.910;4.430;2022-12-29T22:59:32;7.40;99.90
55795;DHT22;41716;51.910;4.430;2022-12-29T23:04:34;8.00;99.90
55795;DHT22;41716;51.910;4.430;2022-12-29T23:09:38;8.20;99.90
55795;DHT22;41716;51.910;4.430;2022-12-29T23:14:39;7.80;99.90
55795;DHT22;41716;51.910;4.430;2022-12-29T23:19:41;7.30;99.90
55795;DHT22;41716;51.910;4.430;2022-12-29T23:24:44;7.90;99.90
55795;DHT22;41716;51.910;4.430;2022-12-29T23:29:46;7.30;99.90
55795;DHT22;41716;51.910;4.430;2022-12-29T23:34:47;8.10;99.90
55795;DHT22;41716;51.910;4.430;2022-12-29T23:39:50;8.10;99.90
55795;DHT22;41716;51.910;4.430;2022-12-29T23:44:52;7.40;99.90
55795;DHT22;41716;51.910;4.430;2022-12-29T23:49:54;7.60;99.90
55795;DHT22;41716;51.910;4.430;2022-12-29T23:54:57;7.10;99.90
55795;DHT22;41716;51.910;4.430;2022-12-29T23:59:58;7.90;99.90
